createdAt,value
2019-02-26T00:01:55.162Z,9.87
2019-02-26T00:04:41.346Z,10.57
2019-02-26T00:07:28.175Z,9.97
2019-02-26T00:10:14.438Z,9.80
2019-02-26T00:12:59.579Z,10.30
2019-02-26T00:15:45.897Z,10.00
2019-02-26T00:18:31.712Z,10.60
2019-02-26T00:21:16.517Z,10.97
2019-02-26T00:24:01.648Z,10.93
2019-02-26T00:26:46.887Z,11.30
2019-02-26T00:29:32.250Z,10.77
2019-02-26T00:32:18.521Z,10.30
2019-02-26T00:35:05.286Z,11.07
2019-02-26T00:37:51.193Z,10.90
2019-02-26T00:40:39.316Z,10.40
2019-02-26T00:43:27.387Z,11.17
2019-02-26T00:46:11.156Z,10.70
2019-02-26T00:48:58.565Z,11.47
2019-02-26T00:51:46.022Z,11.77
2019-02-26T00:54:32.000Z,11.33
2019-02-26T00:57:18.539Z,11.23
2019-02-26T01:00:13.063Z,10.93
2019-02-26T01:02:57.996Z,11.43
2019-02-26T01:05:43.219Z,11.70
2019-02-26T01:08:31.365Z,10.93
2019-02-26T01:11:16.429Z,10.93
2019-02-26T01:14:01.416Z,11.67
2019-02-26T01:16:48.241Z,11.03
2019-02-26T01:19:34.166Z,12.10
2019-02-26T01:22:20.253Z,11.47
2019-02-26T01:25:07.131Z,11.10
2019-02-26T01:27:53.154Z,11.17
2019-02-26T01:30:40.476Z,10.80
2019-02-26T01:33:27.805Z,11.10
2019-02-26T01:36:14.000Z,11.03
2019-02-26T01:38:59.232Z,10.87
2019-02-26T01:41:46.043Z,10.77
2019-02-26T01:44:32.992Z,10.47
2019-02-26T01:47:19.596Z,10.50
2019-02-26T01:50:09.351Z,10.93
2019-02-26T01:52:56.247Z,11.63
2019-02-26T01:55:43.699Z,10.77
2019-02-26T01:58:28.790Z,10.20
2019-02-26T02:01:14.348Z,10.13
2019-02-26T02:04:01.146Z,10.67
2019-02-26T02:06:46.434Z,9.97
2019-02-26T02:09:31.424Z,10.43
2019-02-26T02:12:16.582Z,10.37
2019-02-26T02:15:03.023Z,10.27
2019-02-26T02:17:48.153Z,10.23
2019-02-26T02:20:33.096Z,10.43
2019-02-26T02:23:19.391Z,10.13
2019-02-26T02:26:07.147Z,10.23
2019-02-26T02:28:51.512Z,9.87
2019-02-26T02:31:37.836Z,10.43
2019-02-26T02:34:26.501Z,10.47
2019-02-26T02:37:10.121Z,10.43
2019-02-26T02:39:55.201Z,10.47
2019-02-26T02:42:43.195Z,10.23
2019-02-26T02:45:28.876Z,9.80
2019-02-26T02:48:14.517Z,10.57
2019-02-26T02:51:02.082Z,11.53
2019-02-26T02:53:47.959Z,11.17
2019-02-26T02:56:36.154Z,12.10
2019-02-26T02:59:20.457Z,11.77
2019-02-26T03:02:05.431Z,11.60
2019-02-26T03:04:50.530Z,11.10
2019-02-26T03:07:35.529Z,10.53
2019-02-26T03:10:20.337Z,10.57
2019-02-26T03:13:05.817Z,11.40
2019-02-26T03:15:53.470Z,11.23
2019-02-26T03:18:37.859Z,11.87
2019-02-26T03:21:24.813Z,12.33
2019-02-26T03:24:10.514Z,11.47
2019-02-26T03:26:56.997Z,12.10
2019-02-26T03:29:42.191Z,12.97
2019-02-26T03:32:26.941Z,13.00
2019-02-26T03:35:13.255Z,11.80
2019-02-26T03:38:00.675Z,12.70
2019-02-26T03:40:45.459Z,11.63
2019-02-26T03:43:31.383Z,12.73
2019-02-26T03:46:17.273Z,11.33
2019-02-26T03:49:03.660Z,11.90
2019-02-26T03:51:49.352Z,11.53
2019-02-26T03:54:37.261Z,11.47
2019-02-26T03:57:22.693Z,11.43
2019-02-26T04:00:17.446Z,11.93
2019-02-26T04:03:03.520Z,11.53
2019-02-26T04:05:51.435Z,11.03
2019-02-26T04:08:36.553Z,11.70
2019-02-26T04:11:22.830Z,10.97
2019-02-26T04:14:12.100Z,11.07
2019-02-26T04:16:56.097Z,11.67
2019-02-26T04:19:44.451Z,11.87
2019-02-26T04:22:30.695Z,11.47
2019-02-26T04:25:36.478Z,12.33
2019-02-26T04:28:27.240Z,12.60
2019-02-26T04:31:22.187Z,12.33
2019-02-26T04:34:10.746Z,11.40
2019-02-26T04:37:01.432Z,12.33
2019-02-26T04:39:49.887Z,11.97
2019-02-26T04:42:55.890Z,13.33
2019-02-26T04:46:13.004Z,12.10
2019-02-26T04:48:57.294Z,12.13
2019-02-26T04:51:44.934Z,12.00
2019-02-26T04:54:33.103Z,11.83
2019-02-26T04:57:17.669Z,12.33
2019-02-26T05:00:05.223Z,12.33
2019-02-26T05:02:50.819Z,12.60
2019-02-26T05:05:37.141Z,13.00
2019-02-26T05:08:22.723Z,12.93
2019-02-26T05:11:07.738Z,13.33
2019-02-26T05:13:52.747Z,12.70
2019-02-26T05:16:40.191Z,12.03
2019-02-26T05:19:24.439Z,12.50
2019-02-26T05:22:09.434Z,12.03
2019-02-26T05:24:54.699Z,13.50
2019-02-26T05:27:42.809Z,11.93
2019-02-26T05:30:26.427Z,12.57
2019-02-26T05:33:11.209Z,11.37
2019-02-26T05:35:56.050Z,12.00
2019-02-26T05:38:42.736Z,11.90
2019-02-26T05:41:27.391Z,12.03
2019-02-26T05:44:12.294Z,12.00
2019-02-26T05:46:58.744Z,12.27
2019-02-26T05:49:45.885Z,12.80
2019-02-26T05:52:33.214Z,12.80
2019-02-26T05:55:20.718Z,12.80
2019-02-26T05:58:07.283Z,12.67
2019-02-26T06:00:51.496Z,12.80
2019-02-26T06:03:38.548Z,12.73
2019-02-26T06:06:23.922Z,13.50
2019-02-26T06:09:08.559Z,13.10
2019-02-26T06:11:53.804Z,13.60
2019-02-26T06:14:39.379Z,12.87
2019-02-26T06:17:24.507Z,12.97
2019-02-26T06:20:20.428Z,13.70
2019-02-26T06:23:05.618Z,13.60
2019-02-26T06:25:50.570Z,14.30
2019-02-26T06:28:40.186Z,13.40
2019-02-26T06:31:24.999Z,13.93
2019-02-26T06:34:11.304Z,15.37
2019-02-26T06:37:00.184Z,16.23
2019-02-26T06:39:50.575Z,21.33
2019-02-26T06:42:35.459Z,22.23
2019-02-26T06:45:20.615Z,18.93
2019-02-26T06:48:06.315Z,19.00
2019-02-26T06:50:51.696Z,18.37
2019-02-26T06:53:36.659Z,15.40
2019-02-26T06:56:21.661Z,17.60
2019-02-26T06:59:09.707Z,16.30
2019-02-26T07:01:56.056Z,15.20
2019-02-26T07:04:40.945Z,15.50
2019-02-26T07:07:26.840Z,16.17
2019-02-26T07:10:18.418Z,16.03
2019-02-26T07:13:02.133Z,16.47
2019-02-26T07:15:48.446Z,15.87
2019-02-26T07:18:34.039Z,16.63
2019-02-26T07:21:19.206Z,15.13
2019-02-26T07:24:07.650Z,15.27
2019-02-26T07:26:52.574Z,13.50
2019-02-26T07:29:40.126Z,13.57
2019-02-26T07:32:24.921Z,13.50
2019-02-26T07:35:13.110Z,14.03
2019-02-26T07:37:59.453Z,13.37
2019-02-26T07:40:44.667Z,13.87
2019-02-26T07:43:29.415Z,13.40
2019-02-26T07:46:14.616Z,12.97
2019-02-26T07:49:04.230Z,13.67
2019-02-26T07:51:47.975Z,13.70
2019-02-26T07:54:32.649Z,14.93
2019-02-26T07:57:18.180Z,14.97
2019-02-26T08:00:13.970Z,14.83
2019-02-26T08:03:00.182Z,14.77
2019-02-26T08:05:45.805Z,14.40
2019-02-26T08:08:30.891Z,16.13
2019-02-26T08:11:15.982Z,15.37
2019-02-26T08:14:01.544Z,15.07
2019-02-26T08:16:49.276Z,14.30
2019-02-26T08:19:34.966Z,14.30
2019-02-26T08:22:20.509Z,15.73
2019-02-26T08:25:07.041Z,15.57
2019-02-26T08:27:53.947Z,15.90
2019-02-26T08:30:42.264Z,15.77
2019-02-26T08:33:25.943Z,15.53
2019-02-26T08:36:13.563Z,15.27
2019-02-26T08:38:58.124Z,15.87
2019-02-26T08:42:04.225Z,15.17
2019-02-26T08:44:51.087Z,15.90
2019-02-26T08:47:36.197Z,15.67
2019-02-26T08:50:20.958Z,15.37
2019-02-26T08:53:05.861Z,14.90
2019-02-26T08:55:51.535Z,15.23
2019-02-26T08:58:37.583Z,15.17
2019-02-26T09:01:22.397Z,14.47
2019-02-26T09:04:07.514Z,14.20
2019-02-26T09:06:54.791Z,15.23
2019-02-26T09:09:40.528Z,15.17
2019-02-26T09:12:27.180Z,14.13
2019-02-26T09:15:17.113Z,15.57
2019-02-26T09:18:02.125Z,15.63
2019-02-26T09:20:47.482Z,15.23
2019-02-26T09:23:32.955Z,15.83
2019-02-26T09:26:19.990Z,15.03
2019-02-26T09:29:04.967Z,14.57
2019-02-26T09:31:50.065Z,14.93
2019-02-26T09:34:37.956Z,15.17
2019-02-26T09:37:23.590Z,15.10
2019-02-26T09:40:17.203Z,15.80
2019-02-26T09:43:02.980Z,15.00
2019-02-26T09:45:48.677Z,16.27
2019-02-26T09:48:35.925Z,15.47
2019-02-26T09:51:21.909Z,15.40
2019-02-26T09:54:06.750Z,15.80
2019-02-26T09:56:52.528Z,15.77
2019-02-26T09:59:38.527Z,16.70
2019-02-26T10:02:26.008Z,16.87
2019-02-26T10:05:14.071Z,16.33
2019-02-26T10:08:02.010Z,16.93
2019-02-26T10:10:46.034Z,16.37
2019-02-26T10:13:30.962Z,15.73
2019-02-26T10:16:15.767Z,16.27
2019-02-26T10:19:00.713Z,15.53
2019-02-26T10:21:45.516Z,15.63
2019-02-26T10:24:32.879Z,15.93
2019-02-26T10:27:17.374Z,16.17
2019-02-26T10:30:09.915Z,15.70
2019-02-26T10:32:52.758Z,16.80
2019-02-26T10:35:44.362Z,15.00
2019-02-26T10:38:29.592Z,16.07
2019-02-26T10:41:13.424Z,15.40
2019-02-26T10:43:57.984Z,15.43
2019-02-26T10:46:44.487Z,16.37
2019-02-26T10:49:29.935Z,16.90
2019-02-26T10:52:16.887Z,19.07
2019-02-26T10:55:02.439Z,18.80
2019-02-26T10:57:47.791Z,17.83
2019-02-26T11:00:35.360Z,18.87
2019-02-26T11:03:20.424Z,18.60
2019-02-26T11:06:07.393Z,18.70
2019-02-26T11:08:55.739Z,18.93
2019-02-26T11:11:42.312Z,17.10
2019-02-26T11:14:27.660Z,18.83
2019-02-26T11:17:13.065Z,18.60
2019-02-26T11:19:59.153Z,18.97
2019-02-26T11:22:47.202Z,19.40
2019-02-26T11:25:33.185Z,19.20
2019-02-26T11:28:18.383Z,18.33
2019-02-26T11:31:04.924Z,19.60
2019-02-26T11:33:49.765Z,18.60
2019-02-26T11:36:36.589Z,19.73
2019-02-26T11:39:22.125Z,19.92
2019-02-26T11:42:07.043Z,19.13
2019-02-26T11:44:51.833Z,19.87
2019-02-26T11:47:37.424Z,20.30
2019-02-26T11:50:28.136Z,19.15
2019-02-26T11:53:11.527Z,19.40
2019-02-26T11:55:56.938Z,18.73
2019-02-26T11:58:43.089Z,18.48
2019-02-26T12:01:29.315Z,17.90
2019-02-26T12:04:17.024Z,17.57
2019-02-26T12:07:04.136Z,16.85
2019-02-26T12:09:50.648Z,18.10
2019-02-26T12:12:36.870Z,18.42
2019-02-26T12:15:22.814Z,20.37
2019-02-26T12:18:09.880Z,19.27
2019-02-26T12:20:54.933Z,18.98
2019-02-26T12:23:43.495Z,19.00
2019-02-26T12:26:28.057Z,18.20
2019-02-26T12:29:16.002Z,18.37
2019-02-26T12:32:04.541Z,18.67
2019-02-26T12:34:48.507Z,19.60
2019-02-26T12:37:34.953Z,19.40
2019-02-26T12:40:22.242Z,19.25
2019-02-26T12:43:09.133Z,19.55
2019-02-26T12:45:56.006Z,18.92
2019-02-26T12:48:43.911Z,18.07
2019-02-26T12:51:29.514Z,18.48
2019-02-26T12:54:15.687Z,18.42
2019-02-26T12:57:04.055Z,19.52
2019-02-26T12:59:47.631Z,19.27
2019-02-26T13:02:33.054Z,18.67
2019-02-26T13:05:19.651Z,17.37
2019-02-26T13:08:06.244Z,19.20
2019-02-26T13:10:56.107Z,14.73
2019-02-26T13:13:39.992Z,18.12
2019-02-26T13:16:25.002Z,19.57
2019-02-26T13:19:10.082Z,20.17
2019-02-26T13:22:00.193Z,20.27
2019-02-26T13:24:41.924Z,19.23
2019-02-26T13:27:26.763Z,17.80
2019-02-26T13:30:24.678Z,18.27
2019-02-26T13:33:10.974Z,17.75
2019-02-26T13:36:00.494Z,16.85
2019-02-26T13:38:45.857Z,16.35
2019-02-26T13:41:30.477Z,15.80
2019-02-26T13:44:16.806Z,16.30
2019-02-26T13:47:02.112Z,15.83
2019-02-26T13:49:47.076Z,15.08
2019-02-26T13:52:32.257Z,14.70
2019-02-26T13:55:17.617Z,13.28
2019-02-26T13:58:11.384Z,13.08
2019-02-26T14:00:49.282Z,12.35
2019-02-26T14:03:34.585Z,12.20
2019-02-26T14:06:19.679Z,11.57
2019-02-26T14:09:05.726Z,11.30
2019-02-26T14:11:51.089Z,11.70
2019-02-26T14:14:36.314Z,10.03
2019-02-26T14:17:21.498Z,9.95
2019-02-26T14:20:09.145Z,12.37
2019-02-26T14:22:54.143Z,11.35
2019-02-26T14:25:39.315Z,12.13
2019-02-26T14:28:24.084Z,11.85
2019-02-26T14:31:09.456Z,12.35
2019-02-26T14:33:54.829Z,10.50
2019-02-26T14:36:41.462Z,8.85
2019-02-26T14:39:26.542Z,9.75
2019-02-26T14:42:11.322Z,10.82
2019-02-26T14:44:56.717Z,9.95
2019-02-26T14:47:42.384Z,8.78
2019-02-26T14:50:27.589Z,9.28
2019-02-26T14:53:13.051Z,8.83
2019-02-26T14:55:58.288Z,9.00
2019-02-26T14:58:43.443Z,9.13
2019-02-26T15:01:28.263Z,9.33
2019-02-26T15:04:13.551Z,9.88
2019-02-26T15:06:58.347Z,9.75
2019-02-26T15:09:43.332Z,9.95
2019-02-26T15:12:28.386Z,10.10
2019-02-26T15:15:16.547Z,10.10
2019-02-26T15:18:02.000Z,10.18
2019-02-26T15:20:47.084Z,12.20
2019-02-26T15:23:31.736Z,11.80
2019-02-26T15:26:16.858Z,11.15
2019-02-26T15:29:03.779Z,12.63
2019-02-26T15:31:49.252Z,12.55
2019-02-26T15:34:35.057Z,12.10
2019-02-26T15:37:20.326Z,12.73
2019-02-26T15:40:09.014Z,13.00
2019-02-26T15:42:56.329Z,14.13
2019-02-26T15:45:40.715Z,14.43
2019-02-26T15:48:27.464Z,14.30
2019-02-26T15:51:14.602Z,14.65
2019-02-26T15:53:59.588Z,15.18
2019-02-26T15:56:44.823Z,15.03
2019-02-26T15:59:29.873Z,14.85
2019-02-26T16:02:15.080Z,15.30
2019-02-26T16:05:00.225Z,15.10
2019-02-26T16:07:45.140Z,14.68
2019-02-26T16:10:30.388Z,15.25
2019-02-26T16:13:15.619Z,14.47
2019-02-26T16:16:01.163Z,14.93
2019-02-26T16:18:45.956Z,14.28
2019-02-26T16:21:30.903Z,14.05
2019-02-26T16:24:16.203Z,14.15
2019-02-26T16:27:01.053Z,13.45
2019-02-26T16:29:46.289Z,13.78
2019-02-26T16:32:31.515Z,13.40
2019-02-26T16:35:16.795Z,13.93
2019-02-26T16:38:01.841Z,14.13
2019-02-26T16:40:47.112Z,14.68
2019-02-26T16:43:32.092Z,14.33
2019-02-26T16:46:17.535Z,13.60
2019-02-26T16:49:03.014Z,13.48
2019-02-26T16:51:47.858Z,13.20
2019-02-26T16:54:33.381Z,13.00
2019-02-26T16:57:18.287Z,13.27
2019-02-26T17:00:06.868Z,12.20
2019-02-26T17:02:51.967Z,12.33
2019-02-26T17:05:37.025Z,12.27
2019-02-26T17:08:22.386Z,14.00
2019-02-26T17:11:07.823Z,12.63
2019-02-26T17:13:53.007Z,14.03
2019-02-26T17:16:38.439Z,14.10
2019-02-26T17:19:23.564Z,13.73
2019-02-26T17:22:09.128Z,13.53
2019-02-26T17:24:54.186Z,13.80
2019-02-26T17:27:39.692Z,13.57
2019-02-26T17:30:25.938Z,13.87
2019-02-26T17:33:13.301Z,13.93
2019-02-26T17:35:59.615Z,14.17
2019-02-26T17:38:46.416Z,13.33
2019-02-26T17:41:31.829Z,13.00
2019-02-26T17:44:17.233Z,12.63
2019-02-26T17:47:02.726Z,14.40
2019-02-26T17:49:47.858Z,13.57
2019-02-26T17:52:32.741Z,13.60
2019-02-26T17:55:17.831Z,12.77
2019-02-26T17:58:02.758Z,13.63
2019-02-26T18:00:52.464Z,13.03
2019-02-26T18:03:37.543Z,13.33
2019-02-26T18:06:24.094Z,13.87
2019-02-26T18:09:09.192Z,14.03
2019-02-26T18:11:54.793Z,13.97
2019-02-26T18:14:39.891Z,13.67
2019-02-26T18:17:25.732Z,14.17
2019-02-26T18:20:15.883Z,13.27
2019-02-26T18:23:01.130Z,13.07
2019-02-26T18:25:46.492Z,14.40
2019-02-26T18:28:31.449Z,14.00
2019-02-26T18:31:16.784Z,14.70
2019-02-26T18:34:02.627Z,14.23
2019-02-26T18:36:47.826Z,14.93
2019-02-26T18:39:33.299Z,14.77
2019-02-26T18:42:18.453Z,14.93
2019-02-26T18:45:13.678Z,15.10
2019-02-26T18:47:58.890Z,13.80
2019-02-26T18:50:44.231Z,14.67
2019-02-26T18:53:29.456Z,15.47
2019-02-26T18:56:15.295Z,14.87
2019-02-26T18:59:00.038Z,15.47
2019-02-26T19:01:45.509Z,16.70
2019-02-26T19:04:30.862Z,16.70
2019-02-26T19:07:15.771Z,16.10
2019-02-26T19:10:01.297Z,16.20
2019-02-26T19:12:46.532Z,15.60
2019-02-26T19:15:33.861Z,16.20
2019-02-26T19:18:19.317Z,15.30
2019-02-26T19:21:05.029Z,16.17
2019-02-26T19:23:50.326Z,15.50
2019-02-26T19:26:35.668Z,15.50
2019-02-26T19:29:20.906Z,14.70
2019-02-26T19:32:05.914Z,15.93
2019-02-26T19:34:52.786Z,15.87
2019-02-26T19:37:38.253Z,16.73
2019-02-26T19:40:30.382Z,15.33
2019-02-26T19:43:15.697Z,16.67
2019-02-26T19:46:02.269Z,16.70
2019-02-26T19:48:47.601Z,16.37
2019-02-26T19:51:34.707Z,16.80
2019-02-26T19:54:19.705Z,16.20
2019-02-26T19:57:05.357Z,17.50
2019-02-26T19:59:50.565Z,17.13
2019-02-26T20:02:36.434Z,17.10
2019-02-26T20:05:21.819Z,17.60
2019-02-26T20:08:08.685Z,18.67
2019-02-26T20:10:54.205Z,17.40
2019-02-26T20:13:42.136Z,18.23
2019-02-26T20:16:27.901Z,17.73
2019-02-26T20:19:13.622Z,18.80
2019-02-26T20:21:58.741Z,18.80
2019-02-26T20:24:44.335Z,18.50
2019-02-26T20:27:31.054Z,18.53
2019-02-26T20:30:23.032Z,18.20
2019-02-26T20:33:10.411Z,19.77
2019-02-26T20:35:55.696Z,19.50
2019-02-26T20:38:40.865Z,19.40
2019-02-26T20:41:26.181Z,18.93
2019-02-26T20:44:11.732Z,19.13
2019-02-26T20:46:58.065Z,19.90
2019-02-26T20:49:46.303Z,19.87
2019-02-26T20:52:32.958Z,20.53
2019-02-26T20:55:21.835Z,19.37
2019-02-26T20:58:06.999Z,19.90
2019-02-26T21:00:52.487Z,19.63
2019-02-26T21:03:37.750Z,20.17
2019-02-26T21:06:23.443Z,20.13
2019-02-26T21:09:08.416Z,19.73
2019-02-26T21:11:55.846Z,20.17
2019-02-26T21:14:41.407Z,20.53
2019-02-26T21:17:27.102Z,20.10
2019-02-26T21:20:13.134Z,20.63
2019-02-26T21:22:58.346Z,20.70
2019-02-26T21:25:44.435Z,19.63
2019-02-26T21:28:33.304Z,20.53
2019-02-26T21:31:19.654Z,20.47
2019-02-26T21:34:05.226Z,20.70
2019-02-26T21:36:50.712Z,20.07
2019-02-26T21:39:35.634Z,21.17
2019-02-26T21:42:20.809Z,20.23
2019-02-26T21:45:08.767Z,20.33
2019-02-26T21:47:54.031Z,20.70
2019-02-26T21:50:39.915Z,20.53
2019-02-26T21:53:24.582Z,18.70
2019-02-26T21:56:09.579Z,20.00
2019-02-26T21:58:59.395Z,19.60
2019-02-26T22:01:45.881Z,18.87
2019-02-26T22:04:31.738Z,19.40
2019-02-26T22:07:16.818Z,19.83
2019-02-26T22:10:07.267Z,19.63
2019-02-26T22:12:56.635Z,19.30
2019-02-26T22:15:42.086Z,18.83
2019-02-26T22:18:31.160Z,18.97
2019-02-26T22:21:13.607Z,18.50
2019-02-26T22:23:58.940Z,18.63
2019-02-26T22:26:43.990Z,18.53
2019-02-26T22:29:29.962Z,17.97
2019-02-26T22:32:15.226Z,18.57
2019-02-26T22:35:00.391Z,18.97
2019-02-26T22:37:45.530Z,19.17
2019-02-26T22:40:30.706Z,18.30
2019-02-26T22:43:16.343Z,19.20
2019-02-26T22:46:01.764Z,19.80
2019-02-26T22:48:48.324Z,18.57
2019-02-26T22:51:33.276Z,18.83
2019-02-26T22:54:18.215Z,18.53
2019-02-26T22:57:03.621Z,17.80
2019-02-26T22:59:48.665Z,19.27
2019-02-26T23:02:35.284Z,18.90
2019-02-26T23:05:20.475Z,18.40
2019-02-26T23:08:05.755Z,18.03
2019-02-26T23:10:51.439Z,19.20
2019-02-26T23:13:36.430Z,18.67
2019-02-26T23:16:22.227Z,17.87
2019-02-26T23:19:07.307Z,18.93
2019-02-26T23:21:52.385Z,18.93
2019-02-26T23:24:37.826Z,18.03
2019-02-26T23:27:22.991Z,18.40
2019-02-26T23:30:10.692Z,18.60
2019-02-26T23:32:55.712Z,18.77
2019-02-26T23:35:41.213Z,19.07
2019-02-26T23:38:26.385Z,18.07
2019-02-26T23:41:11.601Z,19.33
2019-02-26T23:43:58.461Z,19.93
2019-02-26T23:46:43.561Z,18.67
2019-02-26T23:49:28.596Z,18.83
2019-02-26T23:52:13.797Z,19.33
2019-02-26T23:54:58.511Z,20.53
2019-02-26T23:57:43.672Z,19.77
